sensor_id;sensor_type;location;lat;lon;timestamp;temperature;humidity
1702;DHT22;848;48.354;10.064;2022-10-22T00:00:58;14.40;99.90
1702;DHT22;848;48.354;10.064;2022-10-22T00:03:25;14.40;99.90
1702;DHT22;848;48.354;10.064;2022-10-22T00:05:52;14.30;99.90
1702;DHT22;848;48.354;10.064;2022-10-22T00:08:19;14.30;99.90
1702;DHT22;848;48.354;10.064;2022-10-22T00:10:47;14.20;99.90
1702;DHT22;848;48.354;10.064;2022-10-22T00:13:14;14.20;99.90
1702;DHT22;848;48.354;10.064;2022-10-22T00:15:42;14.20;99.90
1702;DHT22;848;48.354;10.064;2022-10-22T00:18:08;14.10;99.90
1702;DHT22;848;48.354;10.064;2022-10-22T00:20:35;14.10;99.90
1702;DHT22;848;48.354;10.064;2022-10-22T00:23:02;14.10;99.90
1702;DHT22;848;48.354;10.064;2022-10-22T00:25:30;14.10;99.90
1702;DHT22;848;48.354;10.064;2022-10-22T00:27:58;14.00;99.90
1702;DHT22;848;48.354;10.064;2022-10-22T00:30:25;14.00;99.90
1702;DHT22;848;48.354;10.064;2022-10-22T00:32:52;14.00;99.90
1702;DHT22;848;48.354;10.064;2022-10-22T00:35:18;14.00;99.90
1702;DHT22;848;48.354;10.064;2022-10-22T00:37:45;14.00;99.90
1702;DHT22;848;48.354;10.064;2022-10-22T00:40:12;14.00;99.90
1702;DHT22;848;48.354;10.064;2022-10-22T00:42:39;13.90;99.90
1702;DHT22;848;48.354;10.064;2022-10-22T00:45:16;14.00;99.90
1702;DHT22;848;48.354;10.064;2022-10-22T00:47:47;14.00;99.90
1702;DHT22;848;48.354;10.064;2022-10-22T00:50:18;14.00;99.90
1702;DHT22;848;48.354;10.064;2022-10-22T00:52:46;14.00;99.90
1702;DHT22;848;48.354;10.064;2022-10-22T00:55:14;13.90;99.90
1702;DHT22;848;48.354;10.064;2022-10-22T00:57:41;13.90;99.90
1702;DHT22;848;48.354;10.064;2022-10-22T01:00:11;13.90;99.90
1702;DHT22;848;48.354;10.064;2022-10-22T01:02:38;13.80;99.90
1702;DHT22;848;48.354;10.064;2022-10-22T01:05:06;13.90;99.90
1702;DHT22;848;48.354;10.064;2022-10-22T01:07:39;13.90;99.90
1702;DHT22;848;48.354;10.064;2022-10-22T01:10:11;13.90;99.90
1702;DHT22;848;48.354;10.064;2022-10-22T01:12:47;13.90;99.90
1702;DHT22;848;48.354;10.064;2022-10-22T01:15:23;13.90;99.90
1702;DHT22;848;48.354;10.064;2022-10-22T01:17:56;14.00;99.90
1702;DHT22;848;48.354;10.064;2022-10-22T01:20:48;13.90;99.90
1702;DHT22;848;48.354;10.064;2022-10-22T01:23:33;13.90;99.90
1702;DHT22;848;48.354;10.064;2022-10-22T01:26:14;13.80;99.90
1702;DHT22;848;48.354;10.064;2022-10-22T01:28:56;13.90;99.90
1702;DHT22;848;48.354;10.064;2022-10-22T01:31:31;13.80;99.90
1702;DHT22;848;48.354;10.064;2022-10-22T01:34:00;13.80;99.90
1702;DHT22;848;48.354;10.064;2022-10-22T01:36:29;13.80;99.90
1702;DHT22;848;48.354;10.064;2022-10-22T01:38:58;13.80;99.90
1702;DHT22;848;48.354;10.064;2022-10-22T01:41:26;13.80;99.90
1702;DHT22;848;48.354;10.064;2022-10-22T01:43:55;13.80;99.90
1702;DHT22;848;48.354;10.064;2022-10-22T01:46:26;13.80;99.90
1702;DHT22;848;48.354;10.064;2022-10-22T01:49:06;13.80;99.90
1702;DHT22;848;48.354;10.064;2022-10-22T01:51:50;13.70;99.90
1702;DHT22;848;48.354;10.064;2022-10-22T01:54:27;13.70;99.90
1702;DHT22;848;48.354;10.064;2022-10-22T01:57:06;13.70;99.90
1702;DHT22;848;48.354;10.064;2022-10-22T01:59:44;13.70;99.90
1702;DHT22;848;48.354;10.064;2022-10-22T02:02:23;13.70;99.90
1702;DHT22;848;48.354;10.064;2022-10-22T02:04:54;13.70;99.90
1702;DHT22;848;48.354;10.064;2022-10-22T02:07:32;13.70;99.90
1702;DHT22;848;48.354;10.064;2022-10-22T02:10:02;13.70;99.90
1702;DHT22;848;48.354;10.064;2022-10-22T02:12:30;13.60;99.90
1702;DHT22;848;48.354;10.064;2022-10-22T02:15:00;13.60;99.90
1702;DHT22;848;48.354;10.064;2022-10-22T02:17:30;13.60;99.90
1702;DHT22;848;48.354;10.064;2022-10-22T02:20:02;13.60;99.90
1702;DHT22;848;48.354;10.064;2022-10-22T02:22:31;13.60;99.90
1702;DHT22;848;48.354;10.064;2022-10-22T02:24:59;13.60;99.90
1702;DHT22;848;48.354;10.064;2022-10-22T02:27:29;13.60;99.90
1702;DHT22;848;48.354;10.064;2022-10-22T02:30:02;13.60;99.90
1702;DHT22;848;48.354;10.064;2022-10-22T02:32:32;13.60;99.90
1702;DHT22;848;48.354;10.064;2022-10-22T02:35:01;13.60;99.90
1702;DHT22;848;48.354;10.064;2022-10-22T02:37:28;13.60;99.90
1702;DHT22;848;48.354;10.064;2022-10-22T02:39:55;13.60;99.90
1702;DHT22;848;48.354;10.064;2022-10-22T02:42:23;13.60;99.90
1702;DHT22;848;48.354;10.064;2022-10-22T02:44:50;13.60;99.90
1702;DHT22;848;48.354;10.064;2022-10-22T02:47:18;13.60;99.90
1702;DHT22;848;48.354;10.064;2022-10-22T02:49:45;13.60;99.90
1702;DHT22;848;48.354;10.064;2022-10-22T02:52:12;13.50;99.90
1702;DHT22;848;48.354;10.064;2022-10-22T02:54:39;13.50;99.90
1702;DHT22;848;48.354;10.064;2022-10-22T02:57:06;13.50;99.90
1702;DHT22;848;48.354;10.064;2022-10-22T02:59:33;13.50;99.90
1702;DHT22;848;48.354;10.064;2022-10-22T03:02:00;13.40;99.90
1702;DHT22;848;48.354;10.064;2022-10-22T03:04:28;13.40;99.90
1702;DHT22;848;48.354;10.064;2022-10-22T03:06:57;13.40;99.90
1702;DHT22;848;48.354;10.064;2022-10-22T03:09:24;13.40;99.90
1702;DHT22;848;48.354;10.064;2022-10-22T03:11:51;13.40;99.90
1702;DHT22;848;48.354;10.064;2022-10-22T03:14:18;13.40;99.90
1702;DHT22;848;48.354;10.064;2022-10-22T03:16:45;13.50;99.90
1702;DHT22;848;48.354;10.064;2022-10-22T03:19:12;13.50;99.90
1702;DHT22;848;48.354;10.064;2022-10-22T03:21:44;13.50;99.90
1702;DHT22;848;48.354;10.064;2022-10-22T03:24:15;13.50;99.90
1702;DHT22;848;48.354;10.064;2022-10-22T03:26:44;13.40;99.90
1702;DHT22;848;48.354;10.064;2022-10-22T03:29:12;13.40;99.90
1702;DHT22;848;48.354;10.064;2022-10-22T03:31:41;13.40;99.90
1702;DHT22;848;48.354;10.064;2022-10-22T03:34:07;13.40;99.90
1702;DHT22;848;48.354;10.064;2022-10-22T03:36:36;13.40;99.90
1702;DHT22;848;48.354;10.064;2022-10-22T03:39:05;13.40;99.90
1702;DHT22;848;48.354;10.064;2022-10-22T03:41:33;13.40;99.90
1702;DHT22;848;48.354;10.064;2022-10-22T03:44:01;13.40;99.90
1702;DHT22;848;48.354;10.064;2022-10-22T03:46:28;13.30;99.90
1702;DHT22;848;48.354;10.064;2022-10-22T03:48:55;13.40;99.90
1702;DHT22;848;48.354;10.064;2022-10-22T03:51:22;13.30;99.90
1702;DHT22;848;48.354;10.064;2022-10-22T03:53:51;13.40;99.90
1702;DHT22;848;48.354;10.064;2022-10-22T03:56:20;13.30;99.90
1702;DHT22;848;48.354;10.064;2022-10-22T03:58:47;13.30;99.90
1702;DHT22;848;48.354;10.064;2022-10-22T04:01:14;13.20;99.90
1702;DHT22;848;48.354;10.064;2022-10-22T04:03:41;13.20;99.90
1702;DHT22;848;48.354;10.064;2022-10-22T04:06:11;13.20;99.90
1702;DHT22;848;48.354;10.064;2022-10-22T04:08:41;13.20;99.90
1702;DHT22;848;48.354;10.064;2022-10-22T04:11:09;13.20;99.90
1702;DHT22;848;48.354;10.064;2022-10-22T04:13:38;13.20;99.90
1702;DHT22;848;48.354;10.064;2022-10-22T04:16:08;13.20;99.90
1702;DHT22;848;48.354;10.064;2022-10-22T04:18:36;13.30;99.90
1702;DHT22;848;48.354;10.064;2022-10-22T04:21:04;13.30;99.90
1702;DHT22;848;48.354;10.064;2022-10-22T04:23:31;13.30;99.90
1702;DHT22;848;48.354;10.064;2022-10-22T04:25:59;13.30;99.90
1702;DHT22;848;48.354;10.064;2022-10-22T04:28:26;13.30;99.90
1702;DHT22;848;48.354;10.064;2022-10-22T04:30:54;13.30;99.90
1702;DHT22;848;48.354;10.064;2022-10-22T04:33:21;13.30;99.90
1702;DHT22;848;48.354;10.064;2022-10-22T04:35:48;13.30;99.90
1702;DHT22;848;48.354;10.064;2022-10-22T04:38:15;13.30;99.90
1702;DHT22;848;48.354;10.064;2022-10-22T04:40:42;13.30;99.90
1702;DHT22;848;48.354;10.064;2022-10-22T04:43:09;13.30;99.90
1702;DHT22;848;48.354;10.064;2022-10-22T04:45:36;13.30;99.90
1702;DHT22;848;48.354;10.064;2022-10-22T04:48:05;13.30;99.90
1702;DHT22;848;48.354;10.064;2022-10-22T04:50:35;13.30;99.90
1702;DHT22;848;48.354;10.064;2022-10-22T04:53:02;13.30;99.90
1702;DHT22;848;48.354;10.064;2022-10-22T04:55:29;13.20;99.90
1702;DHT22;848;48.354;10.064;2022-10-22T04:57:56;13.30;99.90
1702;DHT22;848;48.354;10.064;2022-10-22T05:00:23;13.30;99.90
1702;DHT22;848;48.354;10.064;2022-10-22T05:02:50;13.20;99.90
1702;DHT22;848;48.354;10.064;2022-10-22T05:05:18;13.20;99.90
1702;DHT22;848;48.354;10.064;2022-10-22T05:07:45;13.20;99.90
1702;DHT22;848;48.354;10.064;2022-10-22T05:10:12;13.20;99.90
1702;DHT22;848;48.354;10.064;2022-10-22T05:12:39;13.20;99.90
1702;DHT22;848;48.354;10.064;2022-10-22T05:15:07;13.20;99.90
1702;DHT22;848;48.354;10.064;2022-10-22T05:17:35;13.20;99.90
1702;DHT22;848;48.354;10.064;2022-10-22T05:20:02;13.20;99.90
1702;DHT22;848;48.354;10.064;2022-10-22T05:22:32;13.10;99.90
1702;DHT22;848;48.354;10.064;2022-10-22T05:24:59;13.20;99.90
1702;DHT22;848;48.354;10.064;2022-10-22T05:27:26;13.20;99.90
1702;DHT22;848;48.354;10.064;2022-10-22T05:29:53;13.20;99.90
1702;DHT22;848;48.354;10.064;2022-10-22T05:32:20;13.10;99.90
1702;DHT22;848;48.354;10.064;2022-10-22T05:34:47;13.10;99.90
1702;DHT22;848;48.354;10.064;2022-10-22T05:37:14;13.10;99.90
1702;DHT22;848;48.354;10.064;2022-10-22T05:39:42;13.10;99.90
1702;DHT22;848;48.354;10.064;2022-10-22T05:42:09;13.10;99.90
1702;DHT22;848;48.354;10.064;2022-10-22T05:44:36;13.10;99.90
1702;DHT22;848;48.354;10.064;2022-10-22T05:47:03;13.10;99.90
1702;DHT22;848;48.354;10.064;2022-10-22T05:49:30;13.10;99.90
1702;DHT22;848;48.354;10.064;2022-10-22T05:51:57;13.20;99.90
1702;DHT22;848;48.354;10.064;2022-10-22T05:54:24;13.20;99.90
1702;DHT22;848;48.354;10.064;2022-10-22T05:56:52;13.10;99.90
1702;DHT22;848;48.354;10.064;2022-10-22T05:59:20;13.10;99.90
1702;DHT22;848;48.354;10.064;2022-10-22T06:01:47;13.10;99.90
1702;DHT22;848;48.354;10.064;2022-10-22T06:04:14;13.10;99.90
1702;DHT22;848;48.354;10.064;2022-10-22T06:06:44;13.10;99.90
1702;DHT22;848;48.354;10.064;2022-10-22T06:09:14;13.10;99.90
1702;DHT22;848;48.354;10.064;2022-10-22T06:11:43;13.10;99.90
1702;DHT22;848;48.354;10.064;2022-10-22T06:14:11;13.10;99.90
1702;DHT22;848;48.354;10.064;2022-10-22T06:16:39;13.20;99.90
1702;DHT22;848;48.354;10.064;2022-10-22T06:19:08;13.20;99.90
1702;DHT22;848;48.354;10.064;2022-10-22T06:21:35;13.20;99.90
1702;DHT22;848;48.354;10.064;2022-10-22T06:24:02;13.10;99.90
1702;DHT22;848;48.354;10.064;2022-10-22T06:26:29;13.20;99.90
1702;DHT22;848;48.354;10.064;2022-10-22T06:28:57;13.20;99.90
1702;DHT22;848;48.354;10.064;2022-10-22T06:31:26;13.20;99.90
1702;DHT22;848;48.354;10.064;2022-10-22T06:33:53;13.30;99.90
1702;DHT22;848;48.354;10.064;2022-10-22T06:36:22;13.20;99.90
1702;DHT22;848;48.354;10.064;2022-10-22T06:38:51;13.20;99.90
1702;DHT22;848;48.354;10.064;2022-10-22T06:41:18;13.20;99.90
1702;DHT22;848;48.354;10.064;2022-10-22T06:43:45;13.20;99.90
1702;DHT22;848;48.354;10.064;2022-10-22T06:46:14;13.20;99.90
1702;DHT22;848;48.354;10.064;2022-10-22T06:48:46;13.30;99.90
1702;DHT22;848;48.354;10.064;2022-10-22T06:51:13;13.30;99.90
1702;DHT22;848;48.354;10.064;2022-10-22T06:53:40;13.30;99.90
1702;DHT22;848;48.354;10.064;2022-10-22T06:56:10;13.30;99.90
1702;DHT22;848;48.354;10.064;2022-10-22T06:58:37;13.30;99.90
1702;DHT22;848;48.354;10.064;2022-10-22T07:01:06;13.30;99.90
1702;DHT22;848;48.354;10.064;2022-10-22T07:03:33;13.40;99.90
1702;DHT22;848;48.354;10.064;2022-10-22T07:06:04;13.40;99.90
1702;DHT22;848;48.354;10.064;2022-10-22T07:08:32;13.50;99.90
1702;DHT22;848;48.354;10.064;2022-10-22T07:11:05;13.50;99.90
1702;DHT22;848;48.354;10.064;2022-10-22T07:13:32;13.50;99.90
1702;DHT22;848;48.354;10.064;2022-10-22T07:15:59;13.50;99.90
1702;DHT22;848;48.354;10.064;2022-10-22T07:18:26;13.50;99.90
1702;DHT22;848;48.354;10.064;2022-10-22T07:20:53;13.50;99.90
1702;DHT22;848;48.354;10.064;2022-10-22T07:23:21;13.50;99.90
1702;DHT22;848;48.354;10.064;2022-10-22T07:25:48;13.50;99.90
1702;DHT22;848;48.354;10.064;2022-10-22T07:28:15;13.50;99.90
1702;DHT22;848;48.354;10.064;2022-10-22T07:30:42;13.50;99.90
1702;DHT22;848;48.354;10.064;2022-10-22T07:33:09;13.50;99.90
1702;DHT22;848;48.354;10.064;2022-10-22T07:35:37;13.50;99.90
1702;DHT22;848;48.354;10.064;2022-10-22T07:38:05;13.50;99.90
1702;DHT22;848;48.354;10.064;2022-10-22T07:40:35;13.50;99.90
1702;DHT22;848;48.354;10.064;2022-10-22T07:43:03;13.60;99.90
1702;DHT22;848;48.354;10.064;2022-10-22T07:45:30;13.60;99.90
1702;DHT22;848;48.354;10.064;2022-10-22T07:47:58;13.70;99.90
1702;DHT22;848;48.354;10.064;2022-10-22T07:50:26;13.70;99.90
1702;DHT22;848;48.354;10.064;2022-10-22T07:52:53;13.70;99.90
1702;DHT22;848;48.354;10.064;2022-10-22T07:55:20;13.70;99.90
1702;DHT22;848;48.354;10.064;2022-10-22T07:57:48;13.70;99.90
1702;DHT22;848;48.354;10.064;2022-10-22T08:00:16;13.80;99.90
1702;DHT22;848;48.354;10.064;2022-10-22T08:02:43;13.80;99.90
1702;DHT22;848;48.354;10.064;2022-10-22T08:05:10;13.80;99.90
1702;DHT22;848;48.354;10.064;2022-10-22T08:07:38;13.90;99.90
1702;DHT22;848;48.354;10.064;2022-10-22T08:10:06;14.00;99.90
1702;DHT22;848;48.354;10.064;2022-10-22T08:12:33;14.00;99.90
1702;DHT22;848;48.354;10.064;2022-10-22T08:15:01;14.10;99.90
1702;DHT22;848;48.354;10.064;2022-10-22T08:17:28;14.20;99.90
1702;DHT22;848;48.354;10.064;2022-10-22T08:19:55;14.20;99.90
1702;DHT22;848;48.354;10.064;2022-10-22T08:22:22;14.20;99.90
1702;DHT22;848;48.354;10.064;2022-10-22T08:24:49;14.10;99.90
1702;DHT22;848;48.354;10.064;2022-10-22T08:27:15;14.10;99.90
1702;DHT22;848;48.354;10.064;2022-10-22T08:29:46;14.10;99.90
1702;DHT22;848;48.354;10.064;2022-10-22T08:32:14;14.20;99.90
1702;DHT22;848;48.354;10.064;2022-10-22T08:34:41;14.30;99.90
1702;DHT22;848;48.354;10.064;2022-10-22T08:37:08;14.40;99.90
1702;DHT22;848;48.354;10.064;2022-10-22T08:39:38;14.50;99.90
1702;DHT22;848;48.354;10.064;2022-10-22T08:42:19;14.60;99.90
1702;DHT22;848;48.354;10.064;2022-10-22T08:45:02;14.70;99.90
1702;DHT22;848;48.354;10.064;2022-10-22T08:47:54;14.80;99.90
1702;DHT22;848;48.354;10.064;2022-10-22T08:50:29;14.80;99.90
1702;DHT22;848;48.354;10.064;2022-10-22T08:52:59;14.90;99.90
1702;DHT22;848;48.354;10.064;2022-10-22T08:55:29;15.00;99.90
1702;DHT22;848;48.354;10.064;2022-10-22T08:58:02;15.00;99.90
1702;DHT22;848;48.354;10.064;2022-10-22T09:00:34;15.10;99.90
1702;DHT22;848;48.354;10.064;2022-10-22T09:03:19;15.10;99.90
1702;DHT22;848;48.354;10.064;2022-10-22T09:05:55;15.10;99.90
1702;DHT22;848;48.354;10.064;2022-10-22T09:08:23;15.00;99.90
1702;DHT22;848;48.354;10.064;2022-10-22T09:10:53;14.80;99.90
1702;DHT22;848;48.354;10.064;2022-10-22T09:13:22;14.80;99.90
1702;DHT22;848;48.354;10.064;2022-10-22T09:15:52;14.70;99.90
1702;DHT22;848;48.354;10.064;2022-10-22T09:18:32;14.80;99.90
1702;DHT22;848;48.354;10.064;2022-10-22T09:21:09;14.90;99.90
1702;DHT22;848;48.354;10.064;2022-10-22T09:23:54;14.90;99.90
1702;DHT22;848;48.354;10.064;2022-10-22T09:26:21;14.90;99.90
1702;DHT22;848;48.354;10.064;2022-10-22T09:28:50;14.90;99.90
1702;DHT22;848;48.354;10.064;2022-10-22T09:31:17;14.90;99.90
1702;DHT22;848;48.354;10.064;2022-10-22T09:33:49;14.90;99.90
1702;DHT22;848;48.354;10.064;2022-10-22T09:36:18;14.90;99.90
1702;DHT22;848;48.354;10.064;2022-10-22T09:38:48;14.90;99.90
1702;DHT22;848;48.354;10.064;2022-10-22T09:41:15;14.90;99.90
1702;DHT22;848;48.354;10.064;2022-10-22T09:43:45;15.00;99.90
1702;DHT22;848;48.354;10.064;2022-10-22T09:46:16;14.90;99.90
1702;DHT22;848;48.354;10.064;2022-10-22T09:48:47;14.90;99.90
1702;DHT22;848;48.354;10.064;2022-10-22T09:51:18;14.90;99.90
1702;DHT22;848;48.354;10.064;2022-10-22T09:53:47;14.80;99.90
1702;DHT22;848;48.354;10.064;2022-10-22T09:56:25;14.80;99.90
1702;DHT22;848;48.354;10.064;2022-10-22T09:58:53;14.90;99.90
1702;DHT22;848;48.354;10.064;2022-10-22T10:01:23;14.90;99.90
1702;DHT22;848;48.354;10.064;2022-10-22T10:03:52;15.00;99.90
1702;DHT22;848;48.354;10.064;2022-10-22T10:06:20;14.90;99.90
1702;DHT22;848;48.354;10.064;2022-10-22T10:08:47;14.90;99.90
1702;DHT22;848;48.354;10.064;2022-10-22T10:11:22;14.90;99.90
1702;DHT22;848;48.354;10.064;2022-10-22T10:14:01;15.00;99.90
1702;DHT22;848;48.354;10.064;2022-10-22T10:16:42;15.00;99.90
1702;DHT22;848;48.354;10.064;2022-10-22T10:19:29;15.10;99.90
1702;DHT22;848;48.354;10.064;2022-10-22T10:22:08;15.10;99.90
1702;DHT22;848;48.354;10.064;2022-10-22T10:24:55;15.10;99.90
1702;DHT22;848;48.354;10.064;2022-10-22T10:27:32;15.20;99.90
1702;DHT22;848;48.354;10.064;2022-10-22T10:30:03;15.20;99.90
1702;DHT22;848;48.354;10.064;2022-10-22T10:33:02;15.30;99.90
1702;DHT22;848;48.354;10.064;2022-10-22T10:35:40;15.40;99.90
1702;DHT22;848;48.354;10.064;2022-10-22T10:38:29;15.50;99.90
1702;DHT22;848;48.354;10.064;2022-10-22T10:41:04;15.60;99.90
1702;DHT22;848;48.354;10.064;2022-10-22T10:43:40;15.60;99.90
1702;DHT22;848;48.354;10.064;2022-10-22T10:46:13;15.60;99.90
1702;DHT22;848;48.354;10.064;2022-10-22T10:48:53;15.70;99.90
1702;DHT22;848;48.354;10.064;2022-10-22T10:51:34;15.70;99.90
1702;DHT22;848;48.354;10.064;2022-10-22T10:54:21;15.80;99.90
1702;DHT22;848;48.354;10.064;2022-10-22T10:56:53;15.80;99.90
1702;DHT22;848;48.354;10.064;2022-10-22T10:59:30;16.00;99.90
1702;DHT22;848;48.354;10.064;2022-10-22T11:02:17;16.10;99.90
1702;DHT22;848;48.354;10.064;2022-10-22T11:05:10;16.20;99.90
1702;DHT22;848;48.354;10.064;2022-10-22T11:07:48;16.30;99.90
1702;DHT22;848;48.354;10.064;2022-10-22T11:10:24;16.40;99.90
1702;DHT22;848;48.354;10.064;2022-10-22T11:12:57;16.50;99.90
1702;DHT22;848;48.354;10.064;2022-10-22T11:15:30;16.50;99.90
1702;DHT22;848;48.354;10.064;2022-10-22T11:18:04;16.50;99.90
1702;DHT22;848;48.354;10.064;2022-10-22T11:20:40;16.50;99.90
1702;DHT22;848;48.354;10.064;2022-10-22T11:23:15;16.60;99.90
1702;DHT22;848;48.354;10.064;2022-10-22T11:25:44;16.60;99.90
1702;DHT22;848;48.354;10.064;2022-10-22T11:28:14;16.50;99.90
1702;DHT22;848;48.354;10.064;2022-10-22T11:30:46;16.50;99.90
1702;DHT22;848;48.354;10.064;2022-10-22T11:33:18;16.50;99.90
1702;DHT22;848;48.354;10.064;2022-10-22T11:35:47;16.50;99.90
1702;DHT22;848;48.354;10.064;2022-10-22T11:38:21;16.50;99.90
1702;DHT22;848;48.354;10.064;2022-10-22T11:40:53;16.50;99.90
1702;DHT22;848;48.354;10.064;2022-10-22T11:43:29;16.60;99.90
1702;DHT22;848;48.354;10.064;2022-10-22T11:46:00;16.70;99.90
1702;DHT22;848;48.354;10.064;2022-10-22T11:48:35;16.70;99.90
1702;DHT22;848;48.354;10.064;2022-10-22T11:51:02;16.60;99.90
1702;DHT22;848;48.354;10.064;2022-10-22T11:53:32;16.70;99.90
1702;DHT22;848;48.354;10.064;2022-10-22T11:56:10;16.70;99.90
1702;DHT22;848;48.354;10.064;2022-10-22T11:58:47;16.70;99.90
1702;DHT22;848;48.354;10.064;2022-10-22T12:01:26;16.80;99.90
1702;DHT22;848;48.354;10.064;2022-10-22T12:04:16;16.90;99.90
1702;DHT22;848;48.354;10.064;2022-10-22T12:06:57;16.80;99.90
1702;DHT22;848;48.354;10.064;2022-10-22T12:09:26;16.80;99.90
1702;DHT22;848;48.354;10.064;2022-10-22T12:12:01;16.80;99.90
1702;DHT22;848;48.354;10.064;2022-10-22T12:14:33;16.80;99.90
1702;DHT22;848;48.354;10.064;2022-10-22T12:17:06;16.80;99.90
1702;DHT22;848;48.354;10.064;2022-10-22T12:19:36;16.80;99.90
1702;DHT22;848;48.354;10.064;2022-10-22T12:22:12;16.90;99.90
1702;DHT22;848;48.354;10.064;2022-10-22T12:24:44;16.90;99.90
1702;DHT22;848;48.354;10.064;2022-10-22T12:27:17;16.90;99.90
1702;DHT22;848;48.354;10.064;2022-10-22T12:29:45;16.80;99.90
1702;DHT22;848;48.354;10.064;2022-10-22T12:32:14;16.80;99.90
1702;DHT22;848;48.354;10.064;2022-10-22T12:34:45;16.80;99.90
1702;DHT22;848;48.354;10.064;2022-10-22T12:37:13;16.90;99.90
1702;DHT22;848;48.354;10.064;2022-10-22T12:39:41;16.90;99.90
1702;DHT22;848;48.354;10.064;2022-10-22T12:42:12;16.90;99.90
1702;DHT22;848;48.354;10.064;2022-10-22T12:44:39;16.90;99.90
1702;DHT22;848;48.354;10.064;2022-10-22T12:47:10;16.90;99.90
1702;DHT22;848;48.354;10.064;2022-10-22T12:49:42;16.90;99.90
1702;DHT22;848;48.354;10.064;2022-10-22T12:52:14;17.00;99.90
1702;DHT22;848;48.354;10.064;2022-10-22T12:54:44;17.00;99.90
1702;DHT22;848;48.354;10.064;2022-10-22T12:57:13;17.00;99.90
1702;DHT22;848;48.354;10.064;2022-10-22T12:59:42;16.90;99.90
1702;DHT22;848;48.354;10.064;2022-10-22T13:02:16;16.90;99.90
1702;DHT22;848;48.354;10.064;2022-10-22T13:05:12;16.90;99.90
1702;DHT22;848;48.354;10.064;2022-10-22T13:07:42;16.90;99.90
1702;DHT22;848;48.354;10.064;2022-10-22T13:10:18;17.00;99.90
1702;DHT22;848;48.354;10.064;2022-10-22T13:12:49;16.60;99.90
1702;DHT22;848;48.354;10.064;2022-10-22T13:15:29;17.00;99.90
1702;DHT22;848;48.354;10.064;2022-10-22T13:18:01;17.00;99.90
1702;DHT22;848;48.354;10.064;2022-10-22T13:20:29;17.00;99.90
1702;DHT22;848;48.354;10.064;2022-10-22T13:22:57;17.00;99.90
1702;DHT22;848;48.354;10.064;2022-10-22T13:25:28;17.00;99.90
1702;DHT22;848;48.354;10.064;2022-10-22T13:27:56;17.00;99.90
1702;DHT22;848;48.354;10.064;2022-10-22T13:30:27;17.00;99.90
1702;DHT22;848;48.354;10.064;2022-10-22T13:32:56;16.90;99.90
1702;DHT22;848;48.354;10.064;2022-10-22T13:35:25;17.00;99.90
1702;DHT22;848;48.354;10.064;2022-10-22T13:37:54;17.00;99.90
1702;DHT22;848;48.354;10.064;2022-10-22T13:40:21;16.90;99.90
1702;DHT22;848;48.354;10.064;2022-10-22T13:42:49;16.90;99.90
1702;DHT22;848;48.354;10.064;2022-10-22T13:45:17;16.80;99.90
1702;DHT22;848;48.354;10.064;2022-10-22T13:47:47;16.90;99.90
1702;DHT22;848;48.354;10.064;2022-10-22T13:50:17;16.90;99.90
1702;DHT22;848;48.354;10.064;2022-10-22T13:52:47;16.90;99.90
1702;DHT22;848;48.354;10.064;2022-10-22T13:55:18;17.00;99.90
1702;DHT22;848;48.354;10.064;2022-10-22T13:57:45;17.00;99.90
1702;DHT22;848;48.354;10.064;2022-10-22T14:00:16;17.00;99.90
1702;DHT22;848;48.354;10.064;2022-10-22T14:02:44;17.00;99.90
1702;DHT22;848;48.354;10.064;2022-10-22T14:05:11;16.90;99.90
1702;DHT22;848;48.354;10.064;2022-10-22T14:07:39;16.90;99.90
1702;DHT22;848;48.354;10.064;2022-10-22T14:10:13;17.00;99.90
1702;DHT22;848;48.354;10.064;2022-10-22T14:12:40;17.00;99.90
1702;DHT22;848;48.354;10.064;2022-10-22T14:15:09;17.00;99.90
1702;DHT22;848;48.354;10.064;2022-10-22T14:17:39;17.00;99.90
1702;DHT22;848;48.354;10.064;2022-10-22T14:20:12;17.00;99.90
1702;DHT22;848;48.354;10.064;2022-10-22T14:22:40;17.00;99.90
1702;DHT22;848;48.354;10.064;2022-10-22T14:25:09;17.00;99.90
1702;DHT22;848;48.354;10.064;2022-10-22T14:27:38;17.00;99.90
1702;DHT22;848;48.354;10.064;2022-10-22T14:30:06;17.00;99.90
1702;DHT22;848;48.354;10.064;2022-10-22T14:32:33;17.00;99.90
1702;DHT22;848;48.354;10.064;2022-10-22T14:35:01;17.00;99.90
1702;DHT22;848;48.354;10.064;2022-10-22T14:37:28;17.00;99.90
1702;DHT22;848;48.354;10.064;2022-10-22T14:39:55;17.00;99.90
1702;DHT22;848;48.354;10.064;2022-10-22T14:42:26;16.90;99.90
1702;DHT22;848;48.354;10.064;2022-10-22T14:44:53;17.00;99.90
1702;DHT22;848;48.354;10.064;2022-10-22T14:47:20;16.90;99.90
1702;DHT22;848;48.354;10.064;2022-10-22T14:49:47;16.90;99.90
1702;DHT22;848;48.354;10.064;2022-10-22T14:52:15;16.80;99.90
1702;DHT22;848;48.354;10.064;2022-10-22T14:54:42;16.80;99.90
1702;DHT22;848;48.354;10.064;2022-10-22T14:57:09;16.80;99.90
1702;DHT22;848;48.354;10.064;2022-10-22T14:59:39;16.70;99.90
1702;DHT22;848;48.354;10.064;2022-10-22T15:02:07;16.70;99.90
1702;DHT22;848;48.354;10.064;2022-10-22T15:04:34;16.80;99.90
1702;DHT22;848;48.354;10.064;2022-10-22T15:07:02;16.80;99.90
1702;DHT22;848;48.354;10.064;2022-10-22T15:09:33;16.80;99.90
1702;DHT22;848;48.354;10.064;2022-10-22T15:12:03;16.80;99.90
1702;DHT22;848;48.354;10.064;2022-10-22T15:14:30;16.70;99.90
1702;DHT22;848;48.354;10.064;2022-10-22T15:16:57;16.70;99.90
1702;DHT22;848;48.354;10.064;2022-10-22T15:19:24;16.70;99.90
1702;DHT22;848;48.354;10.064;2022-10-22T15:21:51;16.70;99.90
1702;DHT22;848;48.354;10.064;2022-10-22T15:24:18;16.70;99.90
1702;DHT22;848;48.354;10.064;2022-10-22T15:26:46;16.70;99.90
1702;DHT22;848;48.354;10.064;2022-10-22T15:29:15;16.60;99.90
1702;DHT22;848;48.354;10.064;2022-10-22T15:31:46;16.50;99.90
1702;DHT22;848;48.354;10.064;2022-10-22T15:34:18;16.50;99.90
1702;DHT22;848;48.354;10.064;2022-10-22T15:36:45;16.40;99.90
1702;DHT22;848;48.354;10.064;2022-10-22T15:39:12;16.30;99.90
1702;DHT22;848;48.354;10.064;2022-10-22T15:41:39;16.20;99.90
1702;DHT22;848;48.354;10.064;2022-10-22T15:44:12;16.20;99.90
1702;DHT22;848;48.354;10.064;2022-10-22T15:46:40;16.10;99.90
1702;DHT22;848;48.354;10.064;2022-10-22T15:49:07;16.00;99.90
1702;DHT22;848;48.354;10.064;2022-10-22T15:51:33;16.00;99.90
1702;DHT22;848;48.354;10.064;2022-10-22T15:54:00;15.90;99.90
1702;DHT22;848;48.354;10.064;2022-10-22T15:56:28;15.80;99.90
1702;DHT22;848;48.354;10.064;2022-10-22T15:58:57;15.80;99.90
1702;DHT22;848;48.354;10.064;2022-10-22T16:01:26;15.70;99.90
1702;DHT22;848;48.354;10.064;2022-10-22T16:03:53;15.60;99.90
1702;DHT22;848;48.354;10.064;2022-10-22T16:06:25;15.50;99.90
1702;DHT22;848;48.354;10.064;2022-10-22T16:08:53;15.40;99.90
1702;DHT22;848;48.354;10.064;2022-10-22T16:11:20;15.40;99.90
1702;DHT22;848;48.354;10.064;2022-10-22T16:13:47;15.30;99.90
1702;DHT22;848;48.354;10.064;2022-10-22T16:16:14;15.20;99.90
1702;DHT22;848;48.354;10.064;2022-10-22T16:18:42;15.10;99.90
1702;DHT22;848;48.354;10.064;2022-10-22T16:21:11;15.00;99.90